sensor_id;sensor_type;location;lat;lon;timestamp;P1;durP1;ratioP1;P2;durP2;ratioP2
9665;SDS011;4871;52.004;5.924;2023-02-05T00:00:00;15.10;;;5.80;;
9665;SDS011;4871;52.004;5.924;2023-02-05T00:01:00;15.10;;;5.80;;
9665;SDS011;4871;52.004;5.924;2023-02-05T00:02:01;15.10;;;5.80;;
9665;SDS011;4871;52.004;5.924;2023-02-05T00:03:00;15.10;;;5.80;;
9665;SDS011;4871;52.004;5.924;2023-02-05T00:04:00;15.10;;;5.80;;
9665;SDS011;4871;52.004;5.924;2023-02-05T00:05:00;15.10;;;5.80;;
9665;SDS011;4871;52.004;5.924;2023-02-05T00:06:00;15.10;;;5.80;;
9665;SDS011;4871;52.004;5.924;2023-02-05T00:07:00;15.10;;;5.80;;
9665;SDS011;4871;52.004;5.924;2023-02-05T00:08:01;15.80;;;7.30;;
9665;SDS011;4871;52.004;5.924;2023-02-05T00:09:00;15.80;;;7.30;;
9665;SDS011;4871;52.004;5.924;2023-02-05T00:10:00;15.80;;;7.30;;
9665;SDS011;4871;52.004;5.924;2023-02-05T00:11:08;15.80;;;7.30;;
9665;SDS011;4871;52.004;5.924;2023-02-05T00:12:00;15.80;;;7.30;;
9665;SDS011;4871;52.004;5.924;2023-02-05T00:13:00;15.80;;;7.30;;
9665;SDS011;4871;52.004;5.924;2023-02-05T00:14:00;15.80;;;7.30;;
9665;SDS011;4871;52.004;5.924;2023-02-05T00:15:00;15.80;;;7.30;;
9665;SDS011;4871;52.004;5.924;2023-02-05T00:16:05;15.80;;;7.30;;
9665;SDS011;4871;52.004;5.924;2023-02-05T00:17:00;15.80;;;7.30;;
9665;SDS011;4871;52.004;5.924;2023-02-05T00:18:00;15.80;;;7.30;;
9665;SDS011;4871;52.004;5.924;2023-02-05T00:19:00;15.80;;;7.30;;
9665;SDS011;4871;52.004;5.924;2023-02-05T00:20:00;15.80;;;7.30;;
9665;SDS011;4871;52.004;5.924;2023-02-05T00:21:00;15.80;;;7.30;;
9665;SDS011;4871;52.004;5.924;2023-02-05T00:22:00;15.80;;;7.30;;
9665;SDS011;4871;52.004;5.924;2023-02-05T00:23:00;15.80;;;7.30;;
9665;SDS011;4871;52.004;5.924;2023-02-05T00:24:00;15.80;;;7.30;;
9665;SDS011;4871;52.004;5.924;2023-02-05T00:25:00;15.80;;;7.30;;
9665;SDS011;4871;52.004;5.924;2023-02-05T00:26:00;15.80;;;7.30;;
9665;SDS011;4871;52.004;5.924;2023-02-05T00:27:00;15.80;;;7.30;;
9665;SDS011;4871;52.004;5.924;2023-02-05T00:28:00;15.80;;;7.30;;
9665;SDS011;4871;52.004;5.924;2023-02-05T00:29:00;15.80;;;7.30;;
9665;SDS011;4871;52.004;5.924;2023-02-05T00:30:00;15.80;;;7.30;;
9665;SDS011;4871;52.004;5.924;2023-02-05T00:31:05;15.80;;;7.30;;
9665;SDS011;4871;52.004;5.924;2023-02-05T00:32:00;15.80;;;7.30;;
9665;SDS011;4871;52.004;5.924;2023-02-05T00:33:00;15.80;;;7.30;;
9665;SDS011;4871;52.004;5.924;2023-02-05T00:34:00;15.80;;;7.30;;
9665;SDS011;4871;52.004;5.924;2023-02-05T00:35:00;15.80;;;7.30;;
9665;SDS011;4871;52.004;5.924;2023-02-05T00:36:00;15.80;;;7.30;;
9665;SDS011;4871;52.004;5.924;2023-02-05T00:37:00;15.80;;;7.30;;
9665;SDS011;4871;52.004;5.924;2023-02-05T00:38:00;16.00;;;7.80;;
9665;SDS011;4871;52.004;5.924;2023-02-05T00:39:00;16.00;;;7.80;;
9665;SDS011;4871;52.004;5.924;2023-02-05T00:40:00;16.00;;;7.80;;
9665;SDS011;4871;52.004;5.924;2023-02-05T00:41:00;16.00;;;7.80;;
9665;SDS011;4871;52.004;5.924;2023-02-05T00:42:00;16.00;;;7.80;;
9665;SDS011;4871;52.004;5.924;2023-02-05T00:43:00;16.00;;;7.80;;
9665;SDS011;4871;52.004;5.924;2023-02-05T00:44:00;16.00;;;7.80;;
9665;SDS011;4871;52.004;5.924;2023-02-05T00:45:00;16.00;;;7.80;;
9665;SDS011;4871;52.004;5.924;2023-02-05T00:46:00;16.00;;;7.80;;
9665;SDS011;4871;52.004;5.924;2023-02-05T00:47:00;16.00;;;7.80;;
9665;SDS011;4871;52.004;5.924;2023-02-05T00:48:01;16.00;;;7.80;;
9665;SDS011;4871;52.004;5.924;2023-02-05T00:49:00;16.00;;;7.80;;
9665;SDS011;4871;52.004;5.924;2023-02-05T00:50:00;16.00;;;7.80;;
9665;SDS011;4871;52.004;5.924;2023-02-05T00:51:00;16.00;;;7.80;;
9665;SDS011;4871;52.004;5.924;2023-02-05T00:52:00;16.00;;;7.80;;
9665;SDS011;4871;52.004;5.924;2023-02-05T00:53:00;16.00;;;7.80;;
9665;SDS011;4871;52.004;5.924;2023-02-05T00:54:00;16.00;;;7.80;;
9665;SDS011;4871;52.004;5.924;2023-02-05T00:55:00;16.00;;;7.80;;
9665;SDS011;4871;52.004;5.924;2023-02-05T00:56:00;16.00;;;7.80;;
9665;SDS011;4871;52.004;5.924;2023-02-05T00:57:00;16.00;;;7.80;;
9665;SDS011;4871;52.004;5.924;2023-02-05T00:58:00;16.00;;;7.80;;
9665;SDS011;4871;52.004;5.924;2023-02-05T00:59:01;16.00;;;7.80;;
9665;SDS011;4871;52.004;5.924;2023-02-05T01:00:00;16.00;;;7.80;;
9665;SDS011;4871;52.004;5.924;2023-02-05T01:01:00;16.00;;;7.80;;
9665;SDS011;4871;52.004;5.924;2023-02-05T01:02:00;16.00;;;7.80;;
9665;SDS011;4871;52.004;5.924;2023-02-05T01:03:00;16.00;;;7.80;;
9665;SDS011;4871;52.004;5.924;2023-02-05T01:04:00;16.00;;;7.80;;
9665;SDS011;4871;52.004;5.924;2023-02-05T01:05:00;16.00;;;7.80;;
9665;SDS011;4871;52.004;5.924;2023-02-05T01:06:02;16.00;;;7.80;;
9665;SDS011;4871;52.004;5.924;2023-02-05T01:07:00;16.00;;;7.80;;
9665;SDS011;4871;52.004;5.924;2023-02-05T01:08:00;18.70;;;9.60;;
9665;SDS011;4871;52.004;5.924;2023-02-05T01:09:00;18.70;;;9.60;;
9665;SDS011;4871;52.004;5.924;2023-02-05T01:10:00;18.70;;;9.60;;
9665;SDS011;4871;52.004;5.924;2023-02-05T01:11:00;18.70;;;9.60;;
9665;SDS011;4871;52.004;5.924;2023-02-05T01:12:00;18.70;;;9.60;;
9665;SDS011;4871;52.004;5.924;2023-02-05T01:13:00;18.70;;;9.60;;
9665;SDS011;4871;52.004;5.924;2023-02-05T01:14:00;18.70;;;9.60;;
9665;SDS011;4871;52.004;5.924;2023-02-05T01:15:01;18.70;;;9.60;;
9665;SDS011;4871;52.004;5.924;2023-02-05T01:16:00;18.70;;;9.60;;
9665;SDS011;4871;52.004;5.924;2023-02-05T01:17:00;18.70;;;9.60;;
9665;SDS011;4871;52.004;5.924;2023-02-05T01:18:00;18.70;;;9.60;;
9665;SDS011;4871;52.004;5.924;2023-02-05T01:19:00;18.70;;;9.60;;
9665;SDS011;4871;52.004;5.924;2023-02-05T01:20:00;18.70;;;9.60;;
9665;SDS011;4871;52.004;5.924;2023-02-05T01:21:00;18.70;;;9.60;;
9665;SDS011;4871;52.004;5.924;2023-02-05T01:22:00;18.70;;;9.60;;
9665;SDS011;4871;52.004;5.924;2023-02-05T01:23:00;18.70;;;9.60;;
9665;SDS011;4871;52.004;5.924;2023-02-05T01:24:00;18.70;;;9.60;;
9665;SDS011;4871;52.004;5.924;2023-02-05T01:25:00;18.70;;;9.60;;
9665;SDS011;4871;52.004;5.924;2023-02-05T01:26:00;18.70;;;9.60;;
9665;SDS011;4871;52.004;5.924;2023-02-05T01:27:00;18.70;;;9.60;;
9665;SDS011;4871;52.004;5.924;2023-02-05T01:28:00;18.70;;;9.60;;
9665;SDS011;4871;52.004;5.924;2023-02-05T01:29:00;18.70;;;9.60;;
9665;SDS011;4871;52.004;5.924;2023-02-05T01:30:00;18.70;;;9.60;;
9665;SDS011;4871;52.004;5.924;2023-02-05T01:31:00;18.70;;;9.60;;
9665;SDS011;4871;52.004;5.924;2023-02-05T01:32:00;18.70;;;9.60;;
9665;SDS011;4871;52.004;5.924;2023-02-05T01:33:00;18.70;;;9.60;;
9665;SDS011;4871;52.004;5.924;2023-02-05T01:34:00;18.70;;;9.60;;
9665;SDS011;4871;52.004;5.924;2023-02-05T01:35:00;18.70;;;9.60;;
9665;SDS011;4871;52.004;5.924;2023-02-05T01:36:00;18.70;;;9.60;;
9665;SDS011;4871;52.004;5.924;2023-02-05T01:37:00;18.70;;;9.60;;
9665;SDS011;4871;52.004;5.924;2023-02-05T01:38:00;28.90;;;14.10;;
9665;SDS011;4871;52.004;5.924;2023-02-05T01:39:00;28.90;;;14.10;;
9665;SDS011;4871;52.004;5.924;2023-02-05T01:40:00;28.90;;;14.10;;
9665;SDS011;4871;52.004;5.924;2023-02-05T01:41:00;28.90;;;14.10;;
9665;SDS011;4871;52.004;5.924;2023-02-05T01:42:00;28.90;;;14.10;;
9665;SDS011;4871;52.004;5.924;2023-02-05T01:43:00;28.90;;;14.10;;
9665;SDS011;4871;52.004;5.924;2023-02-05T01:44:09;28.90;;;14.10;;
9665;SDS011;4871;52.004;5.924;2023-02-05T01:46:18;28.90;;;14.10;;
9665;SDS011;4871;52.004;5.924;2023-02-05T01:47:00;28.90;;;14.10;;
9665;SDS011;4871;52.004;5.924;2023-02-05T01:48:01;28.90;;;14.10;;
9665;SDS011;4871;52.004;5.924;2023-02-05T01:49:00;28.90;;;14.10;;
9665;SDS011;4871;52.004;5.924;2023-02-05T01:50:00;28.90;;;14.10;;
9665;SDS011;4871;52.004;5.924;2023-02-05T01:51:01;28.90;;;14.10;;
9665;SDS011;4871;52.004;5.924;2023-02-05T01:52:02;28.90;;;14.10;;
9665;SDS011;4871;52.004;5.924;2023-02-05T01:53:02;28.90;;;14.10;;
9665;SDS011;4871;52.004;5.924;2023-02-05T01:54:00;28.90;;;14.10;;
9665;SDS011;4871;52.004;5.924;2023-02-05T01:55:01;28.90;;;14.10;;
9665;SDS011;4871;52.004;5.924;2023-02-05T01:56:05;28.90;;;14.10;;
9665;SDS011;4871;52.004;5.924;2023-02-05T01:57:02;28.90;;;14.10;;
9665;SDS011;4871;52.004;5.924;2023-02-05T01:58:00;28.90;;;14.10;;
9665;SDS011;4871;52.004;5.924;2023-02-05T01:59:03;28.90;;;14.10;;
9665;SDS011;4871;52.004;5.924;2023-02-05T02:00:01;28.90;;;14.10;;
9665;SDS011;4871;52.004;5.924;2023-02-05T02:01:00;28.90;;;14.10;;
9665;SDS011;4871;52.004;5.924;2023-02-05T02:02:00;28.90;;;14.10;;
9665;SDS011;4871;52.004;5.924;2023-02-05T02:03:00;28.90;;;14.10;;
9665;SDS011;4871;52.004;5.924;2023-02-05T02:04:03;28.90;;;14.10;;
9665;SDS011;4871;52.004;5.924;2023-02-05T02:05:02;28.90;;;14.10;;
9665;SDS011;4871;52.004;5.924;2023-02-05T02:06:01;28.90;;;14.10;;
9665;SDS011;4871;52.004;5.924;2023-02-05T02:07:01;28.90;;;14.10;;
9665;SDS011;4871;52.004;5.924;2023-02-05T02:08:01;27.10;;;14.50;;
9665;SDS011;4871;52.004;5.924;2023-02-05T02:09:00;27.10;;;14.50;;
9665;SDS011;4871;52.004;5.924;2023-02-05T02:10:00;27.10;;;14.50;;
9665;SDS011;4871;52.004;5.924;2023-02-05T02:11:01;27.10;;;14.50;;
9665;SDS011;4871;52.004;5.924;2023-02-05T02:12:00;27.10;;;14.50;;
9665;SDS011;4871;52.004;5.924;2023-02-05T02:13:00;27.10;;;14.50;;
9665;SDS011;4871;52.004;5.924;2023-02-05T02:14:00;27.10;;;14.50;;
9665;SDS011;4871;52.004;5.924;2023-02-05T02:15:04;27.10;;;14.50;;
9665;SDS011;4871;52.004;5.924;2023-02-05T02:16:01;27.10;;;14.50;;
9665;SDS011;4871;52.004;5.924;2023-02-05T02:17:00;27.10;;;14.50;;
9665;SDS011;4871;52.004;5.924;2023-02-05T02:18:10;27.10;;;14.50;;
9665;SDS011;4871;52.004;5.924;2023-02-05T02:19:01;27.10;;;14.50;;
9665;SDS011;4871;52.004;5.924;2023-02-05T02:20:01;27.10;;;14.50;;
9665;SDS011;4871;52.004;5.924;2023-02-05T02:23:05;27.10;;;14.50;;
9665;SDS011;4871;52.004;5.924;2023-02-05T02:24:06;27.10;;;14.50;;
9665;SDS011;4871;52.004;5.924;2023-02-05T02:25:10;27.10;;;14.50;;
9665;SDS011;4871;52.004;5.924;2023-02-05T02:26:22;27.10;;;14.50;;
9665;SDS011;4871;52.004;5.924;2023-02-05T02:27:04;27.10;;;14.50;;
9665;SDS011;4871;52.004;5.924;2023-02-05T02:29:01;27.10;;;14.50;;
9665;SDS011;4871;52.004;5.924;2023-02-05T02:30:05;27.10;;;14.50;;
9665;SDS011;4871;52.004;5.924;2023-02-05T02:31:02;27.10;;;14.50;;
9665;SDS011;4871;52.004;5.924;2023-02-05T02:32:02;27.10;;;14.50;;
9665;SDS011;4871;52.004;5.924;2023-02-05T02:34:03;27.10;;;14.50;;
9665;SDS011;4871;52.004;5.924;2023-02-05T02:35:04;27.10;;;14.50;;
9665;SDS011;4871;52.004;5.924;2023-02-05T02:36:04;27.10;;;14.50;;
9665;SDS011;4871;52.004;5.924;2023-02-05T02:37:01;27.10;;;14.50;;
9665;SDS011;4871;52.004;5.924;2023-02-05T02:39:18;26.60;;;14.50;;
9665;SDS011;4871;52.004;5.924;2023-02-05T02:40:06;26.60;;;14.50;;
9665;SDS011;4871;52.004;5.924;2023-02-05T02:41:03;26.60;;;14.50;;
9665;SDS011;4871;52.004;5.924;2023-02-05T02:42:01;26.60;;;14.50;;
9665;SDS011;4871;52.004;5.924;2023-02-05T02:43:05;26.60;;;14.50;;
9665;SDS011;4871;52.004;5.924;2023-02-05T02:44:04;26.60;;;14.50;;
9665;SDS011;4871;52.004;5.924;2023-02-05T02:45:02;26.60;;;14.50;;
9665;SDS011;4871;52.004;5.924;2023-02-05T02:46:06;26.60;;;14.50;;
9665;SDS011;4871;52.004;5.924;2023-02-05T02:47:02;26.60;;;14.50;;
9665;SDS011;4871;52.004;5.924;2023-02-05T02:48:00;26.60;;;14.50;;
9665;SDS011;4871;52.004;5.924;2023-02-05T02:49:02;26.60;;;14.50;;
9665;SDS011;4871;52.004;5.924;2023-02-05T02:50:04;26.60;;;14.50;;
9665;SDS011;4871;52.004;5.924;2023-02-05T02:51:00;26.60;;;14.50;;
9665;SDS011;4871;52.004;5.924;2023-02-05T02:52:01;26.60;;;14.50;;
9665;SDS011;4871;52.004;5.924;2023-02-05T02:53:01;26.60;;;14.50;;
9665;SDS011;4871;52.004;5.924;2023-02-05T02:54:02;26.60;;;14.50;;
9665;SDS011;4871;52.004;5.924;2023-02-05T02:55:05;26.60;;;14.50;;
9665;SDS011;4871;52.004;5.924;2023-02-05T02:56:00;26.60;;;14.50;;
9665;SDS011;4871;52.004;5.924;2023-02-05T02:57:00;26.60;;;14.50;;
9665;SDS011;4871;52.004;5.924;2023-02-05T02:58:00;26.60;;;14.50;;
9665;SDS011;4871;52.004;5.924;2023-02-05T02:59:02;26.60;;;14.50;;
9665;SDS011;4871;52.004;5.924;2023-02-05T03:00:00;26.60;;;14.50;;
9665;SDS011;4871;52.004;5.924;2023-02-05T03:01:00;26.60;;;14.50;;
9665;SDS011;4871;52.004;5.924;2023-02-05T03:02:00;26.60;;;14.50;;
9665;SDS011;4871;52.004;5.924;2023-02-05T03:03:01;26.60;;;14.50;;
9665;SDS011;4871;52.004;5.924;2023-02-05T03:04:03;26.60;;;14.50;;
9665;SDS011;4871;52.004;5.924;2023-02-05T03:05:01;26.60;;;14.50;;
9665;SDS011;4871;52.004;5.924;2023-02-05T03:06:00;26.60;;;14.50;;
9665;SDS011;4871;52.004;5.924;2023-02-05T03:07:04;26.60;;;14.50;;
9665;SDS011;4871;52.004;5.924;2023-02-05T03:08:04;26.10;;;14.50;;
9665;SDS011;4871;52.004;5.924;2023-02-05T03:09:06;26.10;;;14.50;;
9665;SDS011;4871;52.004;5.924;2023-02-05T03:10:03;26.10;;;14.50;;
9665;SDS011;4871;52.004;5.924;2023-02-05T03:11:01;26.10;;;14.50;;
9665;SDS011;4871;52.004;5.924;2023-02-05T03:12:00;26.10;;;14.50;;
9665;SDS011;4871;52.004;5.924;2023-02-05T03:13:00;26.10;;;14.50;;
9665;SDS011;4871;52.004;5.924;2023-02-05T03:14:00;26.10;;;14.50;;
9665;SDS011;4871;52.004;5.924;2023-02-05T03:15:00;26.10;;;14.50;;
9665;SDS011;4871;52.004;5.924;2023-02-05T03:16:00;26.10;;;14.50;;
9665;SDS011;4871;52.004;5.924;2023-02-05T03:17:00;26.10;;;14.50;;
9665;SDS011;4871;52.004;5.924;2023-02-05T03:18:00;26.10;;;14.50;;
9665;SDS011;4871;52.004;5.924;2023-02-05T03:19:02;26.10;;;14.50;;
9665;SDS011;4871;52.004;5.924;2023-02-05T03:20:05;26.10;;;14.50;;
9665;SDS011;4871;52.004;5.924;2023-02-05T03:21:03;26.10;;;14.50;;
9665;SDS011;4871;52.004;5.924;2023-02-05T03:22:01;26.10;;;14.50;;
9665;SDS011;4871;52.004;5.924;2023-02-05T03:23:00;26.10;;;14.50;;
9665;SDS011;4871;52.004;5.924;2023-02-05T03:24:00;26.10;;;14.50;;
9665;SDS011;4871;52.004;5.924;2023-02-05T03:25:00;26.10;;;14.50;;
9665;SDS011;4871;52.004;5.924;2023-02-05T03:26:00;26.10;;;14.50;;
9665;SDS011;4871;52.004;5.924;2023-02-05T03:27:00;26.10;;;14.50;;
9665;SDS011;4871;52.004;5.924;2023-02-05T03:28:00;26.10;;;14.50;;
9665;SDS011;4871;52.004;5.924;2023-02-05T03:29:02;26.10;;;14.50;;
9665;SDS011;4871;52.004;5.924;2023-02-05T03:30:01;26.10;;;14.50;;
9665;SDS011;4871;52.004;5.924;2023-02-05T03:31:03;26.10;;;14.50;;
9665;SDS011;4871;52.004;5.924;2023-02-05T03:33:08;26.10;;;14.50;;
9665;SDS011;4871;52.004;5.924;2023-02-05T03:34:05;26.10;;;14.50;;
9665;SDS011;4871;52.004;5.924;2023-02-05T03:35:11;26.10;;;14.50;;
9665;SDS011;4871;52.004;5.924;2023-02-05T03:37:09;26.10;;;14.50;;
9665;SDS011;4871;52.004;5.924;2023-02-05T03:40:07;22.00;;;12.80;;
9665;SDS011;4871;52.004;5.924;2023-02-05T03:41:04;22.00;;;12.80;;
9665;SDS011;4871;52.004;5.924;2023-02-05T03:43:05;22.00;;;12.80;;
9665;SDS011;4871;52.004;5.924;2023-02-05T03:44:06;22.00;;;12.80;;
9665;SDS011;4871;52.004;5.924;2023-02-05T03:47:02;22.00;;;12.80;;
9665;SDS011;4871;52.004;5.924;2023-02-05T03:48:05;22.00;;;12.80;;
9665;SDS011;4871;52.004;5.924;2023-02-05T03:49:03;22.00;;;12.80;;
9665;SDS011;4871;52.004;5.924;2023-02-05T03:50:19;22.00;;;12.80;;
9665;SDS011;4871;52.004;5.924;2023-02-05T03:51:06;22.00;;;12.80;;
9665;SDS011;4871;52.004;5.924;2023-02-05T03:52:03;22.00;;;12.80;;
9665;SDS011;4871;52.004;5.924;2023-02-05T03:53:02;22.00;;;12.80;;
9665;SDS011;4871;52.004;5.924;2023-02-05T03:56:02;22.00;;;12.80;;
9665;SDS011;4871;52.004;5.924;2023-02-05T03:57:04;22.00;;;12.80;;
9665;SDS011;4871;52.004;5.924;2023-02-05T03:58:03;22.00;;;12.80;;
9665;SDS011;4871;52.004;5.924;2023-02-05T03:59:00;22.00;;;12.80;;
9665;SDS011;4871;52.004;5.924;2023-02-05T04:00:01;22.00;;;12.80;;
9665;SDS011;4871;52.004;5.924;2023-02-05T04:01:00;22.00;;;12.80;;
9665;SDS011;4871;52.004;5.924;2023-02-05T04:02:03;22.00;;;12.80;;
9665;SDS011;4871;52.004;5.924;2023-02-05T04:03:00;22.00;;;12.80;;
9665;SDS011;4871;52.004;5.924;2023-02-05T04:04:00;22.00;;;12.80;;
9665;SDS011;4871;52.004;5.924;2023-02-05T04:05:01;22.00;;;12.80;;
9665;SDS011;4871;52.004;5.924;2023-02-05T04:06:00;22.00;;;12.80;;
9665;SDS011;4871;52.004;5.924;2023-02-05T04:07:00;22.00;;;12.80;;
9665;SDS011;4871;52.004;5.924;2023-02-05T04:08:00;17.70;;;10.30;;
9665;SDS011;4871;52.004;5.924;2023-02-05T04:09:00;17.70;;;10.30;;
9665;SDS011;4871;52.004;5.924;2023-02-05T04:10:00;17.70;;;10.30;;
9665;SDS011;4871;52.004;5.924;2023-02-05T04:11:00;17.70;;;10.30;;
9665;SDS011;4871;52.004;5.924;2023-02-05T04:12:00;17.70;;;10.30;;
9665;SDS011;4871;52.004;5.924;2023-02-05T04:13:00;17.70;;;10.30;;
9665;SDS011;4871;52.004;5.924;2023-02-05T04:14:00;17.70;;;10.30;;
9665;SDS011;4871;52.004;5.924;2023-02-05T04:15:00;17.70;;;10.30;;
9665;SDS011;4871;52.004;5.924;2023-02-05T04:16:00;17.70;;;10.30;;
9665;SDS011;4871;52.004;5.924;2023-02-05T04:17:00;17.70;;;10.30;;
9665;SDS011;4871;52.004;5.924;2023-02-05T04:18:00;17.70;;;10.30;;
9665;SDS011;4871;52.004;5.924;2023-02-05T04:19:00;17.70;;;10.30;;
9665;SDS011;4871;52.004;5.924;2023-02-05T04:20:00;17.70;;;10.30;;
9665;SDS011;4871;52.004;5.924;2023-02-05T04:21:00;17.70;;;10.30;;
9665;SDS011;4871;52.004;5.924;2023-02-05T04:22:00;17.70;;;10.30;;
9665;SDS011;4871;52.004;5.924;2023-02-05T04:23:00;17.70;;;10.30;;
9665;SDS011;4871;52.004;5.924;2023-02-05T04:24:00;17.70;;;10.30;;
9665;SDS011;4871;52.004;5.924;2023-02-05T04:25:00;17.70;;;10.30;;
9665;SDS011;4871;52.004;5.924;2023-02-05T04:26:00;17.70;;;10.30;;
9665;SDS011;4871;52.004;5.924;2023-02-05T04:27:00;17.70;;;10.30;;
9665;SDS011;4871;52.004;5.924;2023-02-05T04:28:00;17.70;;;10.30;;
9665;SDS011;4871;52.004;5.924;2023-02-05T04:29:00;17.70;;;10.30;;
9665;SDS011;4871;52.004;5.924;2023-02-05T04:30:00;17.70;;;10.30;;
9665;SDS011;4871;52.004;5.924;2023-02-05T04:31:00;17.70;;;10.30;;
9665;SDS011;4871;52.004;5.924;2023-02-05T04:32:00;17.70;;;10.30;;
9665;SDS011;4871;52.004;5.924;2023-02-05T04:33:00;17.70;;;10.30;;
9665;SDS011;4871;52.004;5.924;2023-02-05T04:34:00;17.70;;;10.30;;
9665;SDS011;4871;52.004;5.924;2023-02-05T04:35:00;17.70;;;10.30;;
9665;SDS011;4871;52.004;5.924;2023-02-05T04:36:00;17.70;;;10.30;;
9665;SDS011;4871;52.004;5.924;2023-02-05T04:37:00;17.70;;;10.30;;
9665;SDS011;4871;52.004;5.924;2023-02-05T04:38:00;16.10;;;9.50;;
9665;SDS011;4871;52.004;5.924;2023-02-05T04:39:00;16.10;;;9.50;;
9665;SDS011;4871;52.004;5.924;2023-02-05T04:40:00;16.10;;;9.50;;
9665;SDS011;4871;52.004;5.924;2023-02-05T04:41:00;16.10;;;9.50;;
9665;SDS011;4871;52.004;5.924;2023-02-05T04:42:00;16.10;;;9.50;;
9665;SDS011;4871;52.004;5.924;2023-02-05T04:43:00;16.10;;;9.50;;
9665;SDS011;4871;52.004;5.924;2023-02-05T04:44:00;16.10;;;9.50;;
9665;SDS011;4871;52.004;5.924;2023-02-05T04:45:01;16.10;;;9.50;;
9665;SDS011;4871;52.004;5.924;2023-02-05T04:46:04;16.10;;;9.50;;
9665;SDS011;4871;52.004;5.924;2023-02-05T04:47:00;16.10;;;9.50;;
9665;SDS011;4871;52.004;5.924;2023-02-05T04:48:01;16.10;;;9.50;;
9665;SDS011;4871;52.004;5.924;2023-02-05T04:49:00;16.10;;;9.50;;
9665;SDS011;4871;52.004;5.924;2023-02-05T04:50:00;16.10;;;9.50;;
9665;SDS011;4871;52.004;5.924;2023-02-05T04:51:04;16.10;;;9.50;;
9665;SDS011;4871;52.004;5.924;2023-02-05T04:52:00;16.10;;;9.50;;
9665;SDS011;4871;52.004;5.924;2023-02-05T04:53:01;16.10;;;9.50;;
9665;SDS011;4871;52.004;5.924;2023-02-05T04:54:00;16.10;;;9.50;;
9665;SDS011;4871;52.004;5.924;2023-02-05T04:55:00;16.10;;;9.50;;
9665;SDS011;4871;52.004;5.924;2023-02-05T04:56:04;16.10;;;9.50;;
9665;SDS011;4871;52.004;5.924;2023-02-05T04:57:00;16.10;;;9.50;;
9665;SDS011;4871;52.004;5.924;2023-02-05T04:58:00;16.10;;;9.50;;
9665;SDS011;4871;52.004;5.924;2023-02-05T04:59:00;16.10;;;9.50;;
9665;SDS011;4871;52.004;5.924;2023-02-05T05:00:01;16.10;;;9.50;;
9665;SDS011;4871;52.004;5.924;2023-02-05T05:01:00;16.10;;;9.50;;
9665;SDS011;4871;52.004;5.924;2023-02-05T05:02:00;16.10;;;9.50;;
9665;SDS011;4871;52.004;5.924;2023-02-05T05:03:00;16.10;;;9.50;;
9665;SDS011;4871;52.004;5.924;2023-02-05T05:04:00;16.10;;;9.50;;
9665;SDS011;4871;52.004;5.924;2023-02-05T05:05:00;16.10;;;9.50;;
9665;SDS011;4871;52.004;5.924;2023-02-05T05:06:03;16.10;;;9.50;;
9665;SDS011;4871;52.004;5.924;2023-02-05T05:07:00;11.90;;;8.10;;
9665;SDS011;4871;52.004;5.924;2023-02-05T05:08:00;11.90;;;8.10;;
9665;SDS011;4871;52.004;5.924;2023-02-05T05:09:00;11.90;;;8.10;;
9665;SDS011;4871;52.004;5.924;2023-02-05T05:10:00;11.90;;;8.10;;
9665;SDS011;4871;52.004;5.924;2023-02-05T05:11:05;11.90;;;8.10;;
9665;SDS011;4871;52.004;5.924;2023-02-05T05:12:00;11.90;;;8.10;;
9665;SDS011;4871;52.004;5.924;2023-02-05T05:13:00;11.90;;;8.10;;
9665;SDS011;4871;52.004;5.924;2023-02-05T05:14:00;11.90;;;8.10;;
9665;SDS011;4871;52.004;5.924;2023-02-05T05:15:01;11.90;;;8.10;;
9665;SDS011;4871;52.004;5.924;2023-02-05T05:16:00;11.90;;;8.10;;
9665;SDS011;4871;52.004;5.924;2023-02-05T05:17:00;11.90;;;8.10;;
9665;SDS011;4871;52.004;5.924;2023-02-05T05:18:00;11.90;;;8.10;;
9665;SDS011;4871;52.004;5.924;2023-02-05T05:19:00;11.90;;;8.10;;
9665;SDS011;4871;52.004;5.924;2023-02-05T05:20:00;11.90;;;8.10;;
9665;SDS011;4871;52.004;5.924;2023-02-05T05:21:00;11.90;;;8.10;;
9665;SDS011;4871;52.004;5.924;2023-02-05T05:22:00;11.90;;;8.10;;
9665;SDS011;4871;52.004;5.924;2023-02-05T05:23:00;11.90;;;8.10;;
9665;SDS011;4871;52.004;5.924;2023-02-05T05:24:00;11.90;;;8.10;;
9665;SDS011;4871;52.004;5.924;2023-02-05T05:25:00;11.90;;;8.10;;
9665;SDS011;4871;52.004;5.924;2023-02-05T05:26:02;11.90;;;8.10;;
9665;SDS011;4871;52.004;5.924;2023-02-05T05:27:00;11.90;;;8.10;;
9665;SDS011;4871;52.004;5.924;2023-02-05T05:28:00;11.90;;;8.10;;
9665;SDS011;4871;52.004;5.924;2023-02-05T05:29:00;11.90;;;8.10;;
9665;SDS011;4871;52.004;5.924;2023-02-05T05:30:00;11.90;;;8.10;;
9665;SDS011;4871;52.004;5.924;2023-02-05T05:31:08;11.90;;;8.10;;
9665;SDS011;4871;52.004;5.924;2023-02-05T05:32:00;11.90;;;8.10;;
9665;SDS011;4871;52.004;5.924;2023-02-05T05:33:00;11.90;;;8.10;;
9665;SDS011;4871;52.004;5.924;2023-02-05T05:34:00;11.90;;;8.10;;
9665;SDS011;4871;52.004;5.924;2023-02-05T05:35:00;11.90;;;8.10;;
9665;SDS011;4871;52.004;5.924;2023-02-05T05:36:00;11.90;;;8.10;;
9665;SDS011;4871;52.004;5.924;2023-02-05T05:37:00;14.80;;;8.70;;
9665;SDS011;4871;52.004;5.924;2023-02-05T05:38:00;14.80;;;8.70;;
9665;SDS011;4871;52.004;5.924;2023-02-05T05:39:10;14.80;;;8.70;;
9665;SDS011;4871;52.004;5.924;2023-02-05T05:40:11;14.80;;;8.70;;
9665;SDS011;4871;52.004;5.924;2023-02-05T05:41:15;14.80;;;8.70;;
9665;SDS011;4871;52.004;5.924;2023-02-05T05:42:10;14.80;;;8.70;;
9665;SDS011;4871;52.004;5.924;2023-02-05T05:43:10;14.80;;;8.70;;
9665;SDS011;4871;52.004;5.924;2023-02-05T05:44:00;14.80;;;8.70;;
9665;SDS011;4871;52.004;5.924;2023-02-05T05:45:01;14.80;;;8.70;;
9665;SDS011;4871;52.004;5.924;2023-02-05T05:46:00;14.80;;;8.70;;
9665;SDS011;4871;52.004;5.924;2023-02-05T05:47:00;14.80;;;8.70;;
9665;SDS011;4871;52.004;5.924;2023-02-05T05:48:00;14.80;;;8.70;;
9665;SDS011;4871;52.004;5.924;2023-02-05T05:49:01;14.80;;;8.70;;
9665;SDS011;4871;52.004;5.924;2023-02-05T05:50:00;14.80;;;8.70;;
9665;SDS011;4871;52.004;5.924;2023-02-05T05:51:00;14.80;;;8.70;;
9665;SDS011;4871;52.004;5.924;2023-02-05T05:52:00;14.80;;;8.70;;
9665;SDS011;4871;52.004;5.924;2023-02-05T05:53:00;14.80;;;8.70;;
9665;SDS011;4871;52.004;5.924;2023-02-05T05:54:00;14.80;;;8.70;;
9665;SDS011;4871;52.004;5.924;2023-02-05T05:55:00;14.80;;;8.70;;
9665;SDS011;4871;52.004;5.924;2023-02-05T05:56:00;14.80;;;8.70;;
9665;SDS011;4871;52.004;5.924;2023-02-05T05:57:00;14.80;;;8.70;;
9665;SDS011;4871;52.004;5.924;2023-02-05T05:58:00;14.80;;;8.70;;
9665;SDS011;4871;52.004;5.924;2023-02-05T05:59:00;14.80;;;8.70;;
9665;SDS011;4871;52.004;5.924;2023-02-05T06:00:02;14.80;;;8.70;;
9665;SDS011;4871;52.004;5.924;2023-02-05T06:01:00;14.80;;;8.70;;
9665;SDS011;4871;52.004;5.924;2023-02-05T06:02:01;14.80;;;8.70;;
9665;SDS011;4871;52.004;5.924;2023-02-05T06:03:00;14.80;;;8.70;;
9665;SDS011;4871;52.004;5.924;2023-02-05T06:04:00;14.80;;;8.70;;
9665;SDS011;4871;52.004;5.924;2023-02-05T06:05:01;14.80;;;8.70;;
9665;SDS011;4871;52.004;5.924;2023-02-05T06:06:02;14.80;;;8.70;;
9665;SDS011;4871;52.004;5.924;2023-02-05T06:07:01;8.60;;;5.30;;
9665;SDS011;4871;52.004;5.924;2023-02-05T06:08:00;8.60;;;5.30;;
9665;SDS011;4871;52.004;5.924;2023-02-05T06:09:00;8.60;;;5.30;;
9665;SDS011;4871;52.004;5.924;2023-02-05T06:10:00;8.60;;;5.30;;
9665;SDS011;4871;52.004;5.924;2023-02-05T06:11:00;8.60;;;5.30;;
9665;SDS011;4871;52.004;5.924;2023-02-05T06:12:00;8.60;;;5.30;;
9665;SDS011;4871;52.004;5.924;2023-02-05T06:13:00;8.60;;;5.30;;
9665;SDS011;4871;52.004;5.924;2023-02-05T06:14:00;8.60;;;5.30;;
9665;SDS011;4871;52.004;5.924;2023-02-05T06:15:01;8.60;;;5.30;;
9665;SDS011;4871;52.004;5.924;2023-02-05T06:16:00;8.60;;;5.30;;
9665;SDS011;4871;52.004;5.924;2023-02-05T06:17:00;8.60;;;5.30;;
9665;SDS011;4871;52.004;5.924;2023-02-05T06:18:00;8.60;;;5.30;;
9665;SDS011;4871;52.004;5.924;2023-02-05T06:19:00;8.60;;;5.30;;